sensor_id;sensor_type;location;lat;lon;timestamp;temperature;humidity
13436;DHT22;6790;49.520;8.504;2024-03-23T00:52:56;8.60;99.90
13436;DHT22;6790;49.520;8.504;2024-03-23T00:55:22;8.70;99.90
13436;DHT22;6790;49.520;8.504;2024-03-23T00:57:47;8.80;99.90
13436;DHT22;6790;49.520;8.504;2024-03-23T01:00:14;9.00;99.90
13436;DHT22;6790;49.520;8.504;2024-03-23T01:02:41;9.10;99.90
13436;DHT22;6790;49.520;8.504;2024-03-23T01:05:06;9.20;99.90
13436;DHT22;6790;49.520;8.504;2024-03-23T01:07:32;9.30;99.90
13436;DHT22;6790;49.520;8.504;2024-03-23T01:09:58;9.50;99.90
13436;DHT22;6790;49.520;8.504;2024-03-23T01:12:24;9.60;99.90
13436;DHT22;6790;49.520;8.504;2024-03-23T01:14:50;9.80;99.90
13436;DHT22;6790;49.520;8.504;2024-03-23T01:17:15;10.10;99.90
13436;DHT22;6790;49.520;8.504;2024-03-23T01:19:41;10.20;99.90
13436;DHT22;6790;49.520;8.504;2024-03-23T01:22:07;10.30;99.90
13436;DHT22;6790;49.520;8.504;2024-03-23T01:24:33;10.30;99.90
13436;DHT22;6790;49.520;8.504;2024-03-23T01:26:58;10.30;99.90
13436;DHT22;6790;49.520;8.504;2024-03-23T01:29:24;10.30;99.90
13436;DHT22;6790;49.520;8.504;2024-03-23T01:31:50;10.40;99.90
13436;DHT22;6790;49.520;8.504;2024-03-23T01:34:15;10.40;99.90
13436;DHT22;6790;49.520;8.504;2024-03-23T01:36:41;10.40;99.90
13436;DHT22;6790;49.520;8.504;2024-03-23T01:39:07;10.30;99.90
13436;DHT22;6790;49.520;8.504;2024-03-23T01:41:35;10.30;99.90
13436;DHT22;6790;49.520;8.504;2024-03-23T01:44:05;10.20;99.90
13436;DHT22;6790;49.520;8.504;2024-03-23T01:46:37;10.20;99.90
13436;DHT22;6790;49.520;8.504;2024-03-23T01:49:05;10.20;99.90
13436;DHT22;6790;49.520;8.504;2024-03-23T01:51:31;10.20;99.90
13436;DHT22;6790;49.520;8.504;2024-03-23T01:53:57;10.20;99.90
13436;DHT22;6790;49.520;8.504;2024-03-23T01:56:28;10.10;99.90
13436;DHT22;6790;49.520;8.504;2024-03-23T01:58:54;10.00;99.90
13436;DHT22;6790;49.520;8.504;2024-03-23T02:01:20;10.00;99.90
13436;DHT22;6790;49.520;8.504;2024-03-23T02:03:46;9.90;99.90
13436;DHT22;6790;49.520;8.504;2024-03-23T02:06:12;9.90;99.90
13436;DHT22;6790;49.520;8.504;2024-03-23T02:08:37;9.80;99.90
13436;DHT22;6790;49.520;8.504;2024-03-23T02:11:03;9.80;99.90
13436;DHT22;6790;49.520;8.504;2024-03-23T02:13:29;9.80;99.90
13436;DHT22;6790;49.520;8.504;2024-03-23T02:15:54;9.90;99.90
13436;DHT22;6790;49.520;8.504;2024-03-23T02:18:20;10.00;99.90
13436;DHT22;6790;49.520;8.504;2024-03-23T02:20:46;10.20;99.90
13436;DHT22;6790;49.520;8.504;2024-03-23T02:23:18;10.40;99.90
13436;DHT22;6790;49.520;8.504;2024-03-23T02:25:44;10.60;99.90
13436;DHT22;6790;49.520;8.504;2024-03-23T02:28:10;10.90;99.90
13436;DHT22;6790;49.520;8.504;2024-03-23T02:30:37;11.00;99.90
13436;DHT22;6790;49.520;8.504;2024-03-23T02:33:03;11.20;99.90
13436;DHT22;6790;49.520;8.504;2024-03-23T02:35:29;11.30;99.90
13436;DHT22;6790;49.520;8.504;2024-03-23T02:37:55;11.40;99.90
13436;DHT22;6790;49.520;8.504;2024-03-23T02:40:23;11.50;99.90
13436;DHT22;6790;49.520;8.504;2024-03-23T02:42:49;11.50;99.90
13436;DHT22;6790;49.520;8.504;2024-03-23T02:45:15;11.50;99.90
13436;DHT22;6790;49.520;8.504;2024-03-23T02:47:41;11.70;99.90
13436;DHT22;6790;49.520;8.504;2024-03-23T02:50:07;11.70;99.90
13436;DHT22;6790;49.520;8.504;2024-03-23T02:52:34;11.60;99.90
13436;DHT22;6790;49.520;8.504;2024-03-23T02:54:59;11.60;99.90
13436;DHT22;6790;49.520;8.504;2024-03-23T02:57:27;11.60;99.90
13436;DHT22;6790;49.520;8.504;2024-03-23T02:59:53;11.50;99.90
13436;DHT22;6790;49.520;8.504;2024-03-23T03:02:20;11.50;99.90
13436;DHT22;6790;49.520;8.504;2024-03-23T03:04:46;11.50;99.90
13436;DHT22;6790;49.520;8.504;2024-03-23T03:07:12;11.50;99.90
13436;DHT22;6790;49.520;8.504;2024-03-23T03:09:38;11.50;99.90
13436;DHT22;6790;49.520;8.504;2024-03-23T03:12:05;11.60;99.90
13436;DHT22;6790;49.520;8.504;2024-03-23T03:14:31;11.70;99.90
13436;DHT22;6790;49.520;8.504;2024-03-23T03:16:57;11.80;99.90
13436;DHT22;6790;49.520;8.504;2024-03-23T03:19:22;12.00;99.90
13436;DHT22;6790;49.520;8.504;2024-03-23T03:21:48;12.10;99.90
13436;DHT22;6790;49.520;8.504;2024-03-23T03:24:14;12.10;99.90
13436;DHT22;6790;49.520;8.504;2024-03-23T03:26:40;12.10;99.90
13436;DHT22;6790;49.520;8.504;2024-03-23T03:29:06;12.00;99.90
13436;DHT22;6790;49.520;8.504;2024-03-23T03:31:32;12.00;99.90
13436;DHT22;6790;49.520;8.504;2024-03-23T03:33:57;12.00;99.90
13436;DHT22;6790;49.520;8.504;2024-03-23T03:36:23;12.00;99.90
13436;DHT22;6790;49.520;8.504;2024-03-23T03:38:49;11.90;99.90
13436;DHT22;6790;49.520;8.504;2024-03-23T03:41:15;11.90;99.90
13436;DHT22;6790;49.520;8.504;2024-03-23T03:43:40;11.90;99.90
13436;DHT22;6790;49.520;8.504;2024-03-23T03:46:06;11.90;99.90
13436;DHT22;6790;49.520;8.504;2024-03-23T03:48:33;11.90;99.90
13436;DHT22;6790;49.520;8.504;2024-03-23T03:50:59;11.90;99.90
13436;DHT22;6790;49.520;8.504;2024-03-23T03:53:25;11.90;99.90
13436;DHT22;6790;49.520;8.504;2024-03-23T03:55:51;11.80;99.90
13436;DHT22;6790;49.520;8.504;2024-03-23T03:58:17;11.80;99.90
13436;DHT22;6790;49.520;8.504;2024-03-23T04:00:43;11.80;99.90
13436;DHT22;6790;49.520;8.504;2024-03-23T04:03:09;11.80;99.90
13436;DHT22;6790;49.520;8.504;2024-03-23T04:05:34;11.80;99.90
13436;DHT22;6790;49.520;8.504;2024-03-23T04:08:00;11.80;99.90
13436;DHT22;6790;49.520;8.504;2024-03-23T04:10:26;11.80;99.90
13436;DHT22;6790;49.520;8.504;2024-03-23T04:12:52;11.70;99.90
13436;DHT22;6790;49.520;8.504;2024-03-23T04:15:19;11.70;99.90
13436;DHT22;6790;49.520;8.504;2024-03-23T04:17:45;11.70;99.90
13436;DHT22;6790;49.520;8.504;2024-03-23T04:20:10;11.70;99.90
13436;DHT22;6790;49.520;8.504;2024-03-23T04:22:39;11.70;99.90
13436;DHT22;6790;49.520;8.504;2024-03-23T04:25:05;11.70;99.90
13436;DHT22;6790;49.520;8.504;2024-03-23T04:27:33;11.70;99.90
13436;DHT22;6790;49.520;8.504;2024-03-23T04:29:58;11.70;99.90
13436;DHT22;6790;49.520;8.504;2024-03-23T04:32:26;11.70;99.90
13436;DHT22;6790;49.520;8.504;2024-03-23T04:34:52;11.70;99.90
13436;DHT22;6790;49.520;8.504;2024-03-23T04:37:18;11.80;99.90
13436;DHT22;6790;49.520;8.504;2024-03-23T04:39:45;11.80;99.90
13436;DHT22;6790;49.520;8.504;2024-03-23T04:42:10;11.80;99.90
13436;DHT22;6790;49.520;8.504;2024-03-23T04:44:37;11.80;99.90
13436;DHT22;6790;49.520;8.504;2024-03-23T04:47:03;11.80;99.90
13436;DHT22;6790;49.520;8.504;2024-03-23T04:49:28;11.90;99.90
13436;DHT22;6790;49.520;8.504;2024-03-23T04:51:54;11.80;99.90
13436;DHT22;6790;49.520;8.504;2024-03-23T04:54:20;11.90;99.90
13436;DHT22;6790;49.520;8.504;2024-03-23T04:56:45;11.90;99.90
13436;DHT22;6790;49.520;8.504;2024-03-23T04:59:11;11.80;99.90
13436;DHT22;6790;49.520;8.504;2024-03-23T05:01:37;11.80;99.90
13436;DHT22;6790;49.520;8.504;2024-03-23T05:04:05;11.80;99.90
13436;DHT22;6790;49.520;8.504;2024-03-23T05:06:31;11.80;99.90
13436;DHT22;6790;49.520;8.504;2024-03-23T05:08:56;11.80;99.90
13436;DHT22;6790;49.520;8.504;2024-03-23T05:11:22;11.70;99.90
13436;DHT22;6790;49.520;8.504;2024-03-23T05:13:48;11.70;99.90
13436;DHT22;6790;49.520;8.504;2024-03-23T05:16:13;11.70;99.90
13436;DHT22;6790;49.520;8.504;2024-03-23T05:18:39;11.60;99.90
13436;DHT22;6790;49.520;8.504;2024-03-23T05:21:05;11.50;99.90
13436;DHT22;6790;49.520;8.504;2024-03-23T05:23:30;11.10;99.90
13436;DHT22;6790;49.520;8.504;2024-03-23T05:25:56;10.30;99.90
13436;DHT22;6790;49.520;8.504;2024-03-23T05:28:22;9.50;99.90
13436;DHT22;6790;49.520;8.504;2024-03-23T05:30:54;9.20;99.90
13436;DHT22;6790;49.520;8.504;2024-03-23T05:33:21;9.10;99.90
13436;DHT22;6790;49.520;8.504;2024-03-23T05:35:47;9.00;99.90
13436;DHT22;6790;49.520;8.504;2024-03-23T05:38:27;8.90;99.90
13436;DHT22;6790;49.520;8.504;2024-03-23T05:40:57;8.80;99.90
13436;DHT22;6790;49.520;8.504;2024-03-23T05:43:24;8.70;99.90
13436;DHT22;6790;49.520;8.504;2024-03-23T05:45:57;8.60;99.90
13436;DHT22;6790;49.520;8.504;2024-03-23T05:48:23;8.50;99.90
13436;DHT22;6790;49.520;8.504;2024-03-23T05:50:50;8.60;99.90
13436;DHT22;6790;49.520;8.504;2024-03-23T05:53:16;8.50;99.90
13436;DHT22;6790;49.520;8.504;2024-03-23T05:55:42;8.50;99.90
13436;DHT22;6790;49.520;8.504;2024-03-23T05:58:08;8.50;99.90
13436;DHT22;6790;49.520;8.504;2024-03-23T06:00:34;8.50;99.90
13436;DHT22;6790;49.520;8.504;2024-03-23T06:02:59;8.50;99.90
13436;DHT22;6790;49.520;8.504;2024-03-23T06:05:25;8.50;99.90
13436;DHT22;6790;49.520;8.504;2024-03-23T06:07:51;8.50;99.90
13436;DHT22;6790;49.520;8.504;2024-03-23T06:10:18;8.50;99.90
13436;DHT22;6790;49.520;8.504;2024-03-23T06:12:46;8.50;99.90
13436;DHT22;6790;49.520;8.504;2024-03-23T06:15:12;8.50;99.90
13436;DHT22;6790;49.520;8.504;2024-03-23T06:17:38;8.50;99.90
13436;DHT22;6790;49.520;8.504;2024-03-23T06:20:04;8.60;99.90
13436;DHT22;6790;49.520;8.504;2024-03-23T06:22:32;8.60;99.90
13436;DHT22;6790;49.520;8.504;2024-03-23T06:24:59;8.70;99.90
13436;DHT22;6790;49.520;8.504;2024-03-23T06:27:24;8.70;99.90
13436;DHT22;6790;49.520;8.504;2024-03-23T06:29:50;8.80;99.90
13436;DHT22;6790;49.520;8.504;2024-03-23T06:32:16;8.90;99.90
13436;DHT22;6790;49.520;8.504;2024-03-23T06:34:42;8.90;99.90
13436;DHT22;6790;49.520;8.504;2024-03-23T06:37:08;8.90;99.90
13436;DHT22;6790;49.520;8.504;2024-03-23T06:39:35;8.90;99.90
13436;DHT22;6790;49.520;8.504;2024-03-23T06:42:02;8.90;99.90
13436;DHT22;6790;49.520;8.504;2024-03-23T06:44:28;8.80;99.90
13436;DHT22;6790;49.520;8.504;2024-03-23T06:46:54;8.80;99.90
13436;DHT22;6790;49.520;8.504;2024-03-23T06:49:20;8.80;99.90
13436;DHT22;6790;49.520;8.504;2024-03-23T06:51:46;8.80;99.90
13436;DHT22;6790;49.520;8.504;2024-03-23T06:54:12;8.70;99.90
13436;DHT22;6790;49.520;8.504;2024-03-23T06:56:38;8.80;99.90
13436;DHT22;6790;49.520;8.504;2024-03-23T06:59:04;8.90;99.90
13436;DHT22;6790;49.520;8.504;2024-03-23T07:01:29;9.10;99.90
13436;DHT22;6790;49.520;8.504;2024-03-23T07:03:55;9.20;99.90
13436;DHT22;6790;49.520;8.504;2024-03-23T07:06:21;9.20;99.90
13436;DHT22;6790;49.520;8.504;2024-03-23T07:08:46;9.10;99.90
13436;DHT22;6790;49.520;8.504;2024-03-23T07:11:18;9.10;99.90
13436;DHT22;6790;49.520;8.504;2024-03-23T07:13:45;9.00;99.90
13436;DHT22;6790;49.520;8.504;2024-03-23T07:16:11;8.90;99.90
13436;DHT22;6790;49.520;8.504;2024-03-23T07:18:36;8.90;99.90
13436;DHT22;6790;49.520;8.504;2024-03-23T07:21:02;8.80;99.90
13436;DHT22;6790;49.520;8.504;2024-03-23T07:23:28;8.80;99.90
13436;DHT22;6790;49.520;8.504;2024-03-23T07:25:58;9.10;99.90
13436;DHT22;6790;49.520;8.504;2024-03-23T07:28:27;9.30;99.90
13436;DHT22;6790;49.520;8.504;2024-03-23T07:31:07;9.40;99.90
13436;DHT22;6790;49.520;8.504;2024-03-23T07:33:35;9.30;99.90
13436;DHT22;6790;49.520;8.504;2024-03-23T07:36:02;9.30;99.90
13436;DHT22;6790;49.520;8.504;2024-03-23T07:38:28;9.20;99.90
13436;DHT22;6790;49.520;8.504;2024-03-23T07:41:25;9.10;99.90
13436;DHT22;6790;49.520;8.504;2024-03-23T07:43:53;9.10;99.90
13436;DHT22;6790;49.520;8.504;2024-03-23T07:46:20;9.00;99.90
13436;DHT22;6790;49.520;8.504;2024-03-23T07:48:46;9.00;99.90
13436;DHT22;6790;49.520;8.504;2024-03-23T07:51:21;9.10;99.90
13436;DHT22;6790;49.520;8.504;2024-03-23T07:53:47;9.00;99.90
13436;DHT22;6790;49.520;8.504;2024-03-23T07:56:14;9.00;99.90
13436;DHT22;6790;49.520;8.504;2024-03-23T07:58:41;9.00;99.90
13436;DHT22;6790;49.520;8.504;2024-03-23T08:01:09;9.00;99.90
13436;DHT22;6790;49.520;8.504;2024-03-23T08:03:36;9.00;99.90
13436;DHT22;6790;49.520;8.504;2024-03-23T08:06:17;9.00;99.90
13436;DHT22;6790;49.520;8.504;2024-03-23T08:08:45;9.10;99.90
13436;DHT22;6790;49.520;8.504;2024-03-23T08:11:12;9.20;99.90
13436;DHT22;6790;49.520;8.504;2024-03-23T08:13:39;9.40;99.90
13436;DHT22;6790;49.520;8.504;2024-03-23T08:16:06;9.40;99.90
13436;DHT22;6790;49.520;8.504;2024-03-23T08:18:32;9.60;99.90
13436;DHT22;6790;49.520;8.504;2024-03-23T08:21:03;9.90;99.90
13436;DHT22;6790;49.520;8.504;2024-03-23T08:23:33;10.20;99.90
13436;DHT22;6790;49.520;8.504;2024-03-23T08:26:06;10.20;99.90
13436;DHT22;6790;49.520;8.504;2024-03-23T08:28:32;10.20;99.90
13436;DHT22;6790;49.520;8.504;2024-03-23T08:31:02;10.10;99.90
13436;DHT22;6790;49.520;8.504;2024-03-23T08:33:29;10.10;99.90
13436;DHT22;6790;49.520;8.504;2024-03-23T08:35:57;11.50;99.90
13436;DHT22;6790;49.520;8.504;2024-03-23T08:38:27;12.30;99.90
13436;DHT22;6790;49.520;8.504;2024-03-23T08:41:00;12.10;99.90
13436;DHT22;6790;49.520;8.504;2024-03-23T08:43:30;11.70;99.90
13436;DHT22;6790;49.520;8.504;2024-03-23T08:46:10;11.60;99.90
13436;DHT22;6790;49.520;8.504;2024-03-23T08:48:41;11.80;99.90
13436;DHT22;6790;49.520;8.504;2024-03-23T08:51:13;12.10;99.90
13436;DHT22;6790;49.520;8.504;2024-03-23T08:53:40;12.30;99.90
13436;DHT22;6790;49.520;8.504;2024-03-23T08:56:06;11.80;99.90
13436;DHT22;6790;49.520;8.504;2024-03-23T08:58:33;12.00;99.90
13436;DHT22;6790;49.520;8.504;2024-03-23T09:01:10;11.60;99.90
13436;DHT22;6790;49.520;8.504;2024-03-23T09:03:38;11.50;99.90
13436;DHT22;6790;49.520;8.504;2024-03-23T09:06:08;12.20;99.90
13436;DHT22;6790;49.520;8.504;2024-03-23T09:08:35;12.10;99.90
13436;DHT22;6790;49.520;8.504;2024-03-23T09:11:09;12.00;99.90
13436;DHT22;6790;49.520;8.504;2024-03-23T09:13:37;11.90;99.90
13436;DHT22;6790;49.520;8.504;2024-03-23T09:16:05;11.60;99.90
13436;DHT22;6790;49.520;8.504;2024-03-23T09:18:34;11.60;99.90
13436;DHT22;6790;49.520;8.504;2024-03-23T09:21:02;11.30;99.90
13436;DHT22;6790;49.520;8.504;2024-03-23T09:23:37;11.20;99.90
13436;DHT22;6790;49.520;8.504;2024-03-23T09:26:06;11.20;99.90
13436;DHT22;6790;49.520;8.504;2024-03-23T09:28:34;10.90;99.90
13436;DHT22;6790;49.520;8.504;2024-03-23T09:31:07;10.80;99.90
13436;DHT22;6790;49.520;8.504;2024-03-23T09:33:34;10.60;99.90
13436;DHT22;6790;49.520;8.504;2024-03-23T09:36:03;10.70;99.90
13436;DHT22;6790;49.520;8.504;2024-03-23T09:38:30;10.70;99.90
13436;DHT22;6790;49.520;8.504;2024-03-23T09:40:57;10.60;99.90
13436;DHT22;6790;49.520;8.504;2024-03-23T09:43:23;10.90;99.90
13436;DHT22;6790;49.520;8.504;2024-03-23T09:45:49;10.90;99.90
13436;DHT22;6790;49.520;8.504;2024-03-23T09:48:16;10.80;99.90
13436;DHT22;6790;49.520;8.504;2024-03-23T09:50:43;10.60;99.90
13436;DHT22;6790;49.520;8.504;2024-03-23T09:53:10;10.30;99.90
13436;DHT22;6790;49.520;8.504;2024-03-23T09:55:38;10.30;99.90
13436;DHT22;6790;49.520;8.504;2024-03-23T09:58:05;10.30;99.90
13436;DHT22;6790;49.520;8.504;2024-03-23T10:00:32;10.50;99.90
13436;DHT22;6790;49.520;8.504;2024-03-23T10:02:59;10.60;99.90
13436;DHT22;6790;49.520;8.504;2024-03-23T10:05:30;10.80;99.90
13436;DHT22;6790;49.520;8.504;2024-03-23T10:07:57;10.90;99.90
13436;DHT22;6790;49.520;8.504;2024-03-23T10:10:25;11.10;99.90
13436;DHT22;6790;49.520;8.504;2024-03-23T10:12:51;11.10;99.90
13436;DHT22;6790;49.520;8.504;2024-03-23T10:15:22;11.10;99.90
13436;DHT22;6790;49.520;8.504;2024-03-23T10:17:49;11.50;99.90
13436;DHT22;6790;49.520;8.504;2024-03-23T10:20:23;11.60;99.90
13436;DHT22;6790;49.520;8.504;2024-03-23T10:22:49;11.60;97.60
13436;DHT22;6790;49.520;8.504;2024-03-23T10:25:17;11.90;99.90
13436;DHT22;6790;49.520;8.504;2024-03-23T10:27:43;11.90;96.60
13436;DHT22;6790;49.520;8.504;2024-03-23T10:32:37;11.40;96.60
13436;DHT22;6790;49.520;8.504;2024-03-23T10:35:20;11.10;96.90
13436;DHT22;6790;49.520;8.504;2024-03-23T10:37:48;11.10;99.00
13436;DHT22;6790;49.520;8.504;2024-03-23T10:40:17;10.80;99.40
13436;DHT22;6790;49.520;8.504;2024-03-23T10:42:44;10.90;99.90
13436;DHT22;6790;49.520;8.504;2024-03-23T10:45:10;10.80;99.90
13436;DHT22;6790;49.520;8.504;2024-03-23T10:47:37;10.80;99.90
13436;DHT22;6790;49.520;8.504;2024-03-23T10:50:06;10.90;99.50
13436;DHT22;6790;49.520;8.504;2024-03-23T10:52:33;11.30;96.30
13436;DHT22;6790;49.520;8.504;2024-03-23T10:55:00;12.10;95.60
13436;DHT22;6790;49.520;8.504;2024-03-23T10:57:40;12.30;84.30
13436;DHT22;6790;49.520;8.504;2024-03-23T11:00:08;12.60;85.30
13436;DHT22;6790;49.520;8.504;2024-03-23T11:02:34;12.20;85.10
13436;DHT22;6790;49.520;8.504;2024-03-23T11:05:00;12.10;82.20
13436;DHT22;6790;49.520;8.504;2024-03-23T11:07:30;12.50;81.80
13436;DHT22;6790;49.520;8.504;2024-03-23T11:09:57;12.50;82.40
13436;DHT22;6790;49.520;8.504;2024-03-23T11:17:27;12.30;79.80
13436;DHT22;6790;49.520;8.504;2024-03-23T11:27:50;12.00;79.80
13436;DHT22;6790;49.520;8.504;2024-03-23T11:30:27;11.90;81.20
13436;DHT22;6790;49.520;8.504;2024-03-23T11:32:55;11.30;93.90
13436;DHT22;6790;49.520;8.504;2024-03-23T11:35:40;10.60;99.90
13436;DHT22;6790;49.520;8.504;2024-03-23T11:38:10;10.00;99.90
13436;DHT22;6790;49.520;8.504;2024-03-23T11:40:41;9.60;99.90
13436;DHT22;6790;49.520;8.504;2024-03-23T11:43:15;9.10;99.90
13436;DHT22;6790;49.520;8.504;2024-03-23T11:45:50;8.80;99.90
13436;DHT22;6790;49.520;8.504;2024-03-23T11:48:22;8.30;99.90
13436;DHT22;6790;49.520;8.504;2024-03-23T11:50:57;8.00;99.90
13436;DHT22;6790;49.520;8.504;2024-03-23T11:53:24;7.40;99.90
13436;DHT22;6790;49.520;8.504;2024-03-23T11:55:59;7.10;99.90
13436;DHT22;6790;49.520;8.504;2024-03-23T11:58:27;7.40;99.90
13436;DHT22;6790;49.520;8.504;2024-03-23T12:00:55;7.80;99.90
13436;DHT22;6790;49.520;8.504;2024-03-23T12:03:22;8.00;99.90
13436;DHT22;6790;49.520;8.504;2024-03-23T12:05:58;8.30;99.90
13436;DHT22;6790;49.520;8.504;2024-03-23T12:08:32;8.60;99.90
13436;DHT22;6790;49.520;8.504;2024-03-23T12:11:13;9.20;99.90
13436;DHT22;6790;49.520;8.504;2024-03-23T12:13:42;9.60;99.90
13436;DHT22;6790;49.520;8.504;2024-03-23T12:16:21;9.50;99.90
13436;DHT22;6790;49.520;8.504;2024-03-23T12:18:52;9.70;99.90
13436;DHT22;6790;49.520;8.504;2024-03-23T12:21:17;9.70;99.90
13436;DHT22;6790;49.520;8.504;2024-03-23T12:23:44;9.40;99.90
13436;DHT22;6790;49.520;8.504;2024-03-23T12:26:11;9.40;99.90
13436;DHT22;6790;49.520;8.504;2024-03-23T12:28:37;9.40;99.90
13436;DHT22;6790;49.520;8.504;2024-03-23T12:31:03;9.40;99.90
13436;DHT22;6790;49.520;8.504;2024-03-23T12:33:29;9.20;99.90
13436;DHT22;6790;49.520;8.504;2024-03-23T12:35:55;8.80;99.90
13436;DHT22;6790;49.520;8.504;2024-03-23T12:38:21;8.70;99.90
13436;DHT22;6790;49.520;8.504;2024-03-23T12:40:47;8.40;99.90
13436;DHT22;6790;49.520;8.504;2024-03-23T12:43:14;8.50;99.90
13436;DHT22;6790;49.520;8.504;2024-03-23T12:45:40;8.50;99.90
13436;DHT22;6790;49.520;8.504;2024-03-23T12:48:06;8.70;99.90
13436;DHT22;6790;49.520;8.504;2024-03-23T12:50:32;9.00;99.90
13436;DHT22;6790;49.520;8.504;2024-03-23T12:52:58;9.00;99.90
13436;DHT22;6790;49.520;8.504;2024-03-23T12:55:24;9.20;99.90
13436;DHT22;6790;49.520;8.504;2024-03-23T12:57:49;9.00;99.90
13436;DHT22;6790;49.520;8.504;2024-03-23T13:00:15;8.90;99.90
13436;DHT22;6790;49.520;8.504;2024-03-23T13:02:42;8.60;99.90
13436;DHT22;6790;49.520;8.504;2024-03-23T13:05:08;8.10;99.90
13436;DHT22;6790;49.520;8.504;2024-03-23T13:07:37;7.70;99.90
13436;DHT22;6790;49.520;8.504;2024-03-23T13:10:05;7.50;99.90
13436;DHT22;6790;49.520;8.504;2024-03-23T13:12:32;7.30;99.90
13436;DHT22;6790;49.520;8.504;2024-03-23T13:15:01;7.00;99.90
13436;DHT22;6790;49.520;8.504;2024-03-23T13:17:27;7.20;99.90
13436;DHT22;6790;49.520;8.504;2024-03-23T13:19:56;7.40;99.90
13436;DHT22;6790;49.520;8.504;2024-03-23T13:22:22;7.70;99.90
13436;DHT22;6790;49.520;8.504;2024-03-23T13:24:48;8.10;99.90
13436;DHT22;6790;49.520;8.504;2024-03-23T13:27:13;8.20;99.90
13436;DHT22;6790;49.520;8.504;2024-03-23T13:29:39;8.10;99.90
13436;DHT22;6790;49.520;8.504;2024-03-23T13:32:05;8.40;99.90
13436;DHT22;6790;49.520;8.504;2024-03-23T13:34:32;8.40;99.90
13436;DHT22;6790;49.520;8.504;2024-03-23T13:36:58;8.40;99.90
13436;DHT22;6790;49.520;8.504;2024-03-23T13:39:24;8.10;99.90
13436;DHT22;6790;49.520;8.504;2024-03-23T13:41:51;8.00;99.90
13436;DHT22;6790;49.520;8.504;2024-03-23T13:44:16;8.20;99.90
13436;DHT22;6790;49.520;8.504;2024-03-23T13:46:42;8.70;99.90
13436;DHT22;6790;49.520;8.504;2024-03-23T13:49:28;9.20;99.90
13436;DHT22;6790;49.520;8.504;2024-03-23T13:51:56;9.90;99.90
13436;DHT22;6790;49.520;8.504;2024-03-23T13:54:26;9.20;99.90
13436;DHT22;6790;49.520;8.504;2024-03-23T13:56:53;10.00;99.90
13436;DHT22;6790;49.520;8.504;2024-03-23T13:59:20;10.50;99.90
13436;DHT22;6790;49.520;8.504;2024-03-23T14:01:46;10.50;99.90
13436;DHT22;6790;49.520;8.504;2024-03-23T14:04:12;8.70;99.90
13436;DHT22;6790;49.520;8.504;2024-03-23T14:06:38;7.90;99.90
13436;DHT22;6790;49.520;8.504;2024-03-23T14:09:05;7.60;99.90
13436;DHT22;6790;49.520;8.504;2024-03-23T14:11:34;7.50;99.90
13436;DHT22;6790;49.520;8.504;2024-03-23T14:14:01;7.60;99.90
13436;DHT22;6790;49.520;8.504;2024-03-23T14:16:29;8.00;99.90
13436;DHT22;6790;49.520;8.504;2024-03-23T14:18:57;8.40;99.90
13436;DHT22;6790;49.520;8.504;2024-03-23T14:21:23;8.80;99.90
13436;DHT22;6790;49.520;8.504;2024-03-23T14:23:49;8.60;99.90
13436;DHT22;6790;49.520;8.504;2024-03-23T14:26:15;7.70;99.90
13436;DHT22;6790;49.520;8.504;2024-03-23T14:28:40;7.40;99.90
13436;DHT22;6790;49.520;8.504;2024-03-23T14:31:06;7.30;99.90
13436;DHT22;6790;49.520;8.504;2024-03-23T14:33:36;7.00;99.90
13436;DHT22;6790;49.520;8.504;2024-03-23T14:36:03;6.70;99.90
13436;DHT22;6790;49.520;8.504;2024-03-23T14:38:29;6.60;99.90
13436;DHT22;6790;49.520;8.504;2024-03-23T14:40:59;7.20;99.90
13436;DHT22;6790;49.520;8.504;2024-03-23T14:43:25;7.60;99.90
13436;DHT22;6790;49.520;8.504;2024-03-23T14:46:11;7.60;99.90
13436;DHT22;6790;49.520;8.504;2024-03-23T14:48:44;7.70;99.90
13436;DHT22;6790;49.520;8.504;2024-03-23T14:51:12;7.90;99.90
13436;DHT22;6790;49.520;8.504;2024-03-23T14:53:44;8.20;99.90
13436;DHT22;6790;49.520;8.504;2024-03-23T14:56:11;8.00;99.90
13436;DHT22;6790;49.520;8.504;2024-03-23T14:58:38;8.00;99.90
13436;DHT22;6790;49.520;8.504;2024-03-23T15:01:08;8.30;99.90
13436;DHT22;6790;49.520;8.504;2024-03-23T15:03:35;8.80;99.90
13436;DHT22;6790;49.520;8.504;2024-03-23T15:06:08;8.70;99.90
13436;DHT22;6790;49.520;8.504;2024-03-23T15:08:37;8.50;99.90
13436;DHT22;6790;49.520;8.504;2024-03-23T15:11:03;8.50;99.90
13436;DHT22;6790;49.520;8.504;2024-03-23T15:13:36;8.50;99.90
13436;DHT22;6790;49.520;8.504;2024-03-23T15:16:02;8.60;99.90
13436;DHT22;6790;49.520;8.504;2024-03-23T15:18:29;8.60;99.90
13436;DHT22;6790;49.520;8.504;2024-03-23T15:20:57;8.50;99.90
13436;DHT22;6790;49.520;8.504;2024-03-23T15:23:28;8.40;99.90
13436;DHT22;6790;49.520;8.504;2024-03-23T15:25:58;8.40;99.90
13436;DHT22;6790;49.520;8.504;2024-03-23T15:28:24;8.50;99.90
13436;DHT22;6790;49.520;8.504;2024-03-23T15:31:07;8.30;99.90
13436;DHT22;6790;49.520;8.504;2024-03-23T15:33:33;8.20;99.90
13436;DHT22;6790;49.520;8.504;2024-03-23T15:36:02;8.00;99.90
13436;DHT22;6790;49.520;8.504;2024-03-23T15:38:29;7.90;99.90
13436;DHT22;6790;49.520;8.504;2024-03-23T15:40:56;7.80;99.90
13436;DHT22;6790;49.520;8.504;2024-03-23T15:43:22;7.80;99.90
13436;DHT22;6790;49.520;8.504;2024-03-23T15:45:57;7.70;99.90
13436;DHT22;6790;49.520;8.504;2024-03-23T15:48:27;7.70;99.90
13436;DHT22;6790;49.520;8.504;2024-03-23T15:51:02;7.70;99.90
13436;DHT22;6790;49.520;8.504;2024-03-23T15:53:32;7.80;99.90
13436;DHT22;6790;49.520;8.504;2024-03-23T15:55:59;7.70;99.90
13436;DHT22;6790;49.520;8.504;2024-03-23T15:58:30;7.50;99.90
13436;DHT22;6790;49.520;8.504;2024-03-23T16:01:08;9.10;99.90
13436;DHT22;6790;49.520;8.504;2024-03-23T16:03:35;10.70;99.90
13436;DHT22;6790;49.520;8.504;2024-03-23T16:06:03;10.90;99.90
13436;DHT22;6790;49.520;8.504;2024-03-23T16:08:30;11.30;99.90
13436;DHT22;6790;49.520;8.504;2024-03-23T16:13:26;8.50;99.90
13436;DHT22;6790;49.520;8.504;2024-03-23T16:15:57;7.90;99.90
13436;DHT22;6790;49.520;8.504;2024-03-23T16:18:24;7.40;99.90
13436;DHT22;6790;49.520;8.504;2024-03-23T16:21:01;7.10;99.90
13436;DHT22;6790;49.520;8.504;2024-03-23T16:23:33;6.90;99.90
13436;DHT22;6790;49.520;8.504;2024-03-23T16:26:04;6.80;99.90
13436;DHT22;6790;49.520;8.504;2024-03-23T16:28:32;6.80;99.90
13436;DHT22;6790;49.520;8.504;2024-03-23T16:31:05;6.80;99.90
13436;DHT22;6790;49.520;8.504;2024-03-23T16:33:36;6.80;99.90
13436;DHT22;6790;49.520;8.504;2024-03-23T16:36:09;6.80;99.90
13436;DHT22;6790;49.520;8.504;2024-03-23T16:38:38;6.70;99.90
13436;DHT22;6790;49.520;8.504;2024-03-23T16:41:07;6.80;99.90
13436;DHT22;6790;49.520;8.504;2024-03-23T16:43:34;6.70;99.90
13436;DHT22;6790;49.520;8.504;2024-03-23T16:48:31;6.70;99.90
13436;DHT22;6790;49.520;8.504;2024-03-23T16:50:59;6.80;99.90
13436;DHT22;6790;49.520;8.504;2024-03-23T16:53:25;6.70;99.90
13436;DHT22;6790;49.520;8.504;2024-03-23T16:56:02;6.80;99.90
13436;DHT22;6790;49.520;8.504;2024-03-23T16:58:32;6.70;99.90
13436;DHT22;6790;49.520;8.504;2024-03-23T17:03:30;6.60;99.90
13436;DHT22;6790;49.520;8.504;2024-03-23T17:05:55;6.60;99.90
13436;DHT22;6790;49.520;8.504;2024-03-23T17:08:21;6.60;99.90
13436;DHT22;6790;49.520;8.504;2024-03-23T17:10:47;6.50;99.90
13436;DHT22;6790;49.520;8.504;2024-03-23T17:13:13;6.50;99.90